createdAt,value
2019-06-25T03:30:14.310Z,18.61
2019-06-25T03:32:44.529Z,18.54
2019-06-25T03:35:14.838Z,18.53
2019-06-25T03:37:45.116Z,18.50
2019-06-25T03:40:17.175Z,18.53
2019-06-25T03:42:47.533Z,18.55
2019-06-25T03:45:19.624Z,18.59
2019-06-25T03:47:49.824Z,18.64
2019-06-25T03:50:19.977Z,18.68
2019-06-25T03:52:50.297Z,18.70
2019-06-25T03:55:20.619Z,18.68
2019-06-25T03:57:50.845Z,18.68
2019-06-25T04:00:23.540Z,18.71
2019-06-25T04:02:56.129Z,18.73
2019-06-25T04:05:26.261Z,18.77
2019-06-25T04:07:56.407Z,18.80
2019-06-25T04:10:26.546Z,18.80
2019-06-25T04:12:57.611Z,18.77
2019-06-25T04:15:27.905Z,18.77
2019-06-25T04:17:58.145Z,18.78
2019-06-25T04:20:28.323Z,18.81
2019-06-25T04:22:58.623Z,18.82
2019-06-25T04:25:28.838Z,18.84
2019-06-25T04:27:59.033Z,18.87
2019-06-25T04:30:29.301Z,18.91
2019-06-25T04:35:30.576Z,19.06
2019-06-25T04:38:00.761Z,19.09
2019-06-25T04:40:30.960Z,19.17
2019-06-25T04:43:01.344Z,19.21
2019-06-25T04:45:31.501Z,19.27
2019-06-25T04:48:02.533Z,19.33
2019-06-25T04:50:32.726Z,19.37
2019-06-25T04:53:02.984Z,19.44
2019-06-25T04:55:34.416Z,19.50
2019-06-25T04:58:04.744Z,19.54
2019-06-25T05:00:35.728Z,19.62
2019-06-25T05:03:05.942Z,19.67
2019-06-25T05:05:36.274Z,19.73
2019-06-25T05:08:06.674Z,19.77
2019-06-25T05:10:38.214Z,19.84
2019-06-25T05:13:08.438Z,19.89
2019-06-25T05:15:40.260Z,19.94
2019-06-25T05:18:10.411Z,19.98
2019-06-25T05:20:42.208Z,20.03
2019-06-25T05:23:12.870Z,20.07
2019-06-25T05:25:44.104Z,20.13
2019-06-25T05:28:14.420Z,20.21
2019-06-25T05:30:44.773Z,20.23
2019-06-25T05:33:15.247Z,20.26
2019-06-25T05:35:50.439Z,20.25
2019-06-25T05:38:21.519Z,20.25
2019-06-25T05:40:52.760Z,20.25
2019-06-25T05:43:22.988Z,20.28
2019-06-25T05:45:53.361Z,20.31
2019-06-25T05:48:23.682Z,20.33
2019-06-25T05:50:54.705Z,20.34
2019-06-25T05:53:25.829Z,20.40
2019-06-25T05:55:56.022Z,20.38
2019-06-25T05:58:26.239Z,20.38
2019-06-25T06:00:56.570Z,20.38
2019-06-25T06:03:26.726Z,20.40
2019-06-25T06:05:57.413Z,20.52
2019-06-25T06:08:28.758Z,20.62
2019-06-25T06:10:58.952Z,20.69
2019-06-25T06:13:30.740Z,20.75
2019-06-25T06:16:00.903Z,20.77
2019-06-25T06:18:39.502Z,20.83
2019-06-25T06:21:09.885Z,20.90
2019-06-25T06:23:40.300Z,20.98
2019-06-25T06:26:17.999Z,21.05
2019-06-25T06:28:43.106Z,21.19
2019-06-25T06:31:17.642Z,21.28
2019-06-25T06:33:49.973Z,21.35
2019-06-25T06:36:18.853Z,21.47
2019-06-25T06:38:49.129Z,21.52
2019-06-25T06:41:19.356Z,21.55
2019-06-25T06:43:49.623Z,21.59
2019-06-25T06:46:19.906Z,21.69
2019-06-25T06:48:50.070Z,21.76
2019-06-25T06:51:20.403Z,21.74
2019-06-25T06:53:50.605Z,21.75
2019-06-25T06:56:20.820Z,21.86
2019-06-25T06:58:51.532Z,21.92
2019-06-25T07:01:21.739Z,22.03
2019-06-25T07:03:53.688Z,22.11
2019-06-25T07:06:24.036Z,22.18
2019-06-25T07:08:54.330Z,22.26
2019-06-25T07:11:24.775Z,22.35
2019-06-25T07:13:54.967Z,22.42
2019-06-25T07:16:25.134Z,22.46
2019-06-25T07:18:56.191Z,22.56
2019-06-25T07:21:27.169Z,22.64
2019-06-25T07:23:57.339Z,22.71
2019-06-25T07:26:27.502Z,22.79
2019-06-25T07:28:58.697Z,22.82
2019-06-25T07:31:29.772Z,22.83
2019-06-25T07:34:09.134Z,22.91
2019-06-25T07:36:31.789Z,23.00
2019-06-25T07:39:01.890Z,23.07
2019-06-25T07:41:32.083Z,23.13
2019-06-25T07:44:02.179Z,23.15
2019-06-25T07:46:32.535Z,23.11
2019-06-25T07:49:02.866Z,23.23
2019-06-25T07:51:33.187Z,23.32
2019-06-25T07:54:03.322Z,23.45
2019-06-25T07:56:36.984Z,23.52
2019-06-25T07:59:05.394Z,23.55
2019-06-25T08:01:37.365Z,23.65
2019-06-25T08:04:07.623Z,23.68
2019-06-25T08:06:37.779Z,23.80
2019-06-25T08:09:09.610Z,23.78
2019-06-25T08:11:40.696Z,23.91
2019-06-25T08:14:10.874Z,24.02
2019-06-25T08:16:41.093Z,24.11
2019-06-25T08:19:11.285Z,24.19
2019-06-25T08:21:41.553Z,24.37
2019-06-25T08:24:12.373Z,24.38
2019-06-25T08:26:42.735Z,24.40
2019-06-25T08:29:14.746Z,24.47
2019-06-25T08:31:44.925Z,24.48
2019-06-25T08:34:15.150Z,24.51
2019-06-25T08:36:46.269Z,24.60
2019-06-25T08:39:17.200Z,24.74
2019-06-25T08:41:47.390Z,24.80
2019-06-25T08:44:17.644Z,24.82
2019-06-25T08:46:47.844Z,24.82
2019-06-25T08:49:21.903Z,24.93
2019-06-25T08:51:52.099Z,24.98
2019-06-25T08:54:22.402Z,25.05
2019-06-25T08:56:52.675Z,25.09
2019-06-25T08:59:25.969Z,25.13
2019-06-25T09:01:54.731Z,25.22
2019-06-25T09:04:25.020Z,25.27
2019-06-25T09:06:55.221Z,25.36
2019-06-25T09:09:26.191Z,25.43
2019-06-25T09:11:57.180Z,25.54
2019-06-25T09:14:27.582Z,25.66
2019-06-25T09:16:59.685Z,25.79
2019-06-25T09:19:30.077Z,25.91
2019-06-25T09:22:00.230Z,25.97
2019-06-25T09:24:31.573Z,26.02
2019-06-25T09:27:03.287Z,26.05
2019-06-25T09:29:34.345Z,26.15
2019-06-25T09:32:05.405Z,26.15
2019-06-25T09:34:36.150Z,26.23
2019-06-25T09:37:06.584Z,26.39
2019-06-25T09:39:41.633Z,26.39
2019-06-25T09:42:10.087Z,26.41
2019-06-25T09:44:40.144Z,26.40
2019-06-25T09:47:10.331Z,26.47
2019-06-25T09:49:40.868Z,26.54
2019-06-25T09:52:11.055Z,26.56
2019-06-25T09:54:41.657Z,26.56
2019-06-25T09:57:11.859Z,26.54
2019-06-25T09:59:42.090Z,26.75
2019-06-25T10:02:12.209Z,26.75
2019-06-25T10:04:42.498Z,26.81
2019-06-25T10:07:15.589Z,26.87
2019-06-25T10:09:44.679Z,26.89
2019-06-25T10:12:15.549Z,26.92
2019-06-25T10:14:45.742Z,26.99
2019-06-25T10:17:16.693Z,26.98
2019-06-25T10:19:46.881Z,26.95
2019-06-25T10:22:17.894Z,26.94
2019-06-25T10:24:48.088Z,26.98
2019-06-25T10:27:18.324Z,27.09
2019-06-25T10:29:49.452Z,27.24
2019-06-25T10:32:20.519Z,27.37
2019-06-25T10:34:50.633Z,27.45
2019-06-25T10:37:21.570Z,27.56
2019-06-25T10:39:51.804Z,27.66
2019-06-25T10:42:23.024Z,27.73
2019-06-25T10:44:53.239Z,27.80
2019-06-25T10:47:23.537Z,27.83
2019-06-25T10:49:53.830Z,27.91
2019-06-25T10:52:24.807Z,27.91
2019-06-25T10:54:54.993Z,27.95
2019-06-25T10:57:25.374Z,27.93
2019-06-25T10:59:55.837Z,27.99
2019-06-25T11:02:29.108Z,28.01
2019-06-25T11:04:58.086Z,28.06
2019-06-25T11:07:29.034Z,28.21
2019-06-25T11:09:59.252Z,28.28
2019-06-25T11:12:30.274Z,28.34
2019-06-25T11:15:01.349Z,28.48
2019-06-25T11:17:31.965Z,28.59
2019-06-25T11:20:02.154Z,28.70
2019-06-25T11:22:32.516Z,28.75
2019-06-25T11:25:02.770Z,28.80
2019-06-25T11:27:32.925Z,28.77
2019-06-25T11:30:04.013Z,28.80
2019-06-25T11:32:35.191Z,28.83
2019-06-25T11:35:06.556Z,28.89
2019-06-25T11:37:36.798Z,28.88
2019-06-25T11:40:07.145Z,28.96
2019-06-25T11:42:38.360Z,28.97
2019-06-25T11:45:09.389Z,29.26
2019-06-25T11:47:39.531Z,29.26
2019-06-25T11:50:10.370Z,29.39
2019-06-25T11:52:41.301Z,29.52
2019-06-25T11:55:11.556Z,29.66
2019-06-25T11:57:41.752Z,29.74
2019-06-25T12:00:13.014Z,29.80
2019-06-25T12:02:43.240Z,29.86
2019-06-25T12:05:13.601Z,29.87
2019-06-25T12:07:43.800Z,29.98
2019-06-25T12:10:14.976Z,30.11
2019-06-25T12:12:45.974Z,30.10
2019-06-25T12:15:16.379Z,30.05
2019-06-25T12:17:47.359Z,30.13
2019-06-25T12:20:17.727Z,30.24
2019-06-25T12:22:47.902Z,30.42
2019-06-25T12:25:18.163Z,30.51
2019-06-25T12:27:48.529Z,30.61
2019-06-25T12:30:18.865Z,30.66
2019-06-25T12:32:49.303Z,30.63
2019-06-25T12:35:20.592Z,30.64
2019-06-25T12:37:52.413Z,30.73
2019-06-25T12:40:22.758Z,30.78
2019-06-25T12:42:53.031Z,30.84
2019-06-25T12:45:23.245Z,30.95
2019-06-25T12:47:53.497Z,31.06
2019-06-25T12:50:24.806Z,31.05
2019-06-25T12:52:55.775Z,31.06
2019-06-25T12:55:26.081Z,31.11
2019-06-25T12:57:57.148Z,31.22
2019-06-25T13:00:28.612Z,31.31
2019-06-25T13:02:58.837Z,31.37
2019-06-25T13:05:29.090Z,31.43
2019-06-25T13:07:59.311Z,31.49
2019-06-25T13:10:43.118Z,31.55
2019-06-25T13:13:01.494Z,31.70
2019-06-25T13:15:31.694Z,31.71
2019-06-25T13:18:01.895Z,31.75
2019-06-25T13:20:32.035Z,31.83
2019-06-25T13:23:02.403Z,31.88
2019-06-25T13:25:33.582Z,31.91
2019-06-25T13:28:06.136Z,32.02
2019-06-25T13:30:36.400Z,32.14
2019-06-25T13:33:06.624Z,32.12
2019-06-25T13:35:36.922Z,32.14
2019-06-25T13:38:08.791Z,32.19
2019-06-25T13:40:39.010Z,32.35
2019-06-25T13:43:12.509Z,32.47
2019-06-25T13:45:42.838Z,32.57
2019-06-25T13:48:13.001Z,32.72
2019-06-25T13:50:43.945Z,32.84
2019-06-25T13:53:14.154Z,32.93
2019-06-25T13:55:44.321Z,33.18
2019-06-25T13:58:17.541Z,33.35
2019-06-25T14:00:47.815Z,33.54
2019-06-25T14:03:20.876Z,33.63
2019-06-25T14:05:51.058Z,33.89
2019-06-25T14:08:21.325Z,34.23
2019-06-25T14:10:51.497Z,34.56
2019-06-25T14:13:21.763Z,34.89
2019-06-25T14:15:52.048Z,35.07
2019-06-25T14:18:22.307Z,35.40
2019-06-25T14:20:52.524Z,35.75
2019-06-25T14:23:22.753Z,36.01
2019-06-25T14:26:08.939Z,36.31
2019-06-25T14:28:24.966Z,36.40
2019-06-25T14:30:55.946Z,36.40
2019-06-25T14:33:27.062Z,36.49
2019-06-25T14:35:58.287Z,36.55
2019-06-25T14:38:29.652Z,36.59
2019-06-25T14:40:59.870Z,36.49
2019-06-25T14:43:30.277Z,36.56
2019-06-25T14:46:00.513Z,36.67
2019-06-25T14:48:30.727Z,36.93
2019-06-25T14:51:00.959Z,37.13
2019-06-25T14:53:31.212Z,37.05
2019-06-25T14:56:01.459Z,37.08
2019-06-25T14:58:35.082Z,37.18
2019-06-25T15:01:06.123Z,37.14
2019-06-25T15:03:36.350Z,36.92
2019-06-25T15:06:06.966Z,36.82
2019-06-25T15:08:37.181Z,36.88
2019-06-25T15:11:07.459Z,37.08
2019-06-25T15:13:37.839Z,37.39
2019-06-25T15:16:08.062Z,37.39
2019-06-25T15:18:38.354Z,37.48
2019-06-25T15:21:10.163Z,37.22
2019-06-25T15:23:41.720Z,36.99
2019-06-25T15:26:12.449Z,36.97
2019-06-25T15:28:42.781Z,37.08
2019-06-25T15:31:13.744Z,37.23
2019-06-25T15:33:44.058Z,37.51
2019-06-25T15:36:15.010Z,37.68
2019-06-25T15:38:47.699Z,37.63
2019-06-25T15:41:17.235Z,37.71
2019-06-25T15:43:47.477Z,37.76
2019-06-25T15:46:17.683Z,37.63
2019-06-25T15:48:48.101Z,37.59
2019-06-25T15:51:20.701Z,37.60
2019-06-25T15:53:50.907Z,37.55
2019-06-25T15:56:21.891Z,37.33
2019-06-25T15:58:52.164Z,37.28
2019-06-25T16:01:24.172Z,37.22
2019-06-25T16:03:54.607Z,37.30
2019-06-25T16:06:25.049Z,37.34
2019-06-25T16:09:03.190Z,37.30
2019-06-25T16:11:27.392Z,37.24
2019-06-25T16:13:57.563Z,37.04
2019-06-25T16:16:29.315Z,36.65
2019-06-25T16:19:00.465Z,36.68
2019-06-25T16:21:30.614Z,36.73
2019-06-25T16:24:00.864Z,36.65
2019-06-25T16:26:33.987Z,36.49
2019-06-25T16:29:05.100Z,36.12
2019-06-25T16:31:36.904Z,35.41
2019-06-25T16:34:07.152Z,34.93
2019-06-25T16:36:37.613Z,34.58
2019-06-25T16:39:18.647Z,34.23
2019-06-25T16:41:41.960Z,33.95
2019-06-25T16:44:12.246Z,33.76
2019-06-25T16:46:42.627Z,33.51
2019-06-25T16:49:12.884Z,33.25
2019-06-25T16:51:43.107Z,33.05
2019-06-25T16:54:13.495Z,32.92
2019-06-25T16:56:43.799Z,32.72
2019-06-25T16:59:15.578Z,32.58
2019-06-25T17:01:45.790Z,32.42
